createdAt,value
2023-01-27T00:01:18.751Z,80.58
2023-01-27T00:03:47.048Z,80.86
2023-01-27T00:06:15.282Z,80.28
2023-01-27T00:08:43.408Z,79.81
2023-01-27T00:11:29.306Z,79.95
2023-01-27T00:13:57.716Z,79.88
2023-01-27T00:16:27.302Z,80.69
2023-01-27T00:18:55.382Z,81.54
2023-01-27T00:21:41.081Z,82.04
2023-01-27T00:24:31.320Z,81.99
2023-01-27T00:26:59.894Z,82.33
2023-01-27T00:29:28.041Z,82.05
2023-01-27T00:32:14.954Z,82.58
2023-01-27T00:34:43.097Z,82.68
2023-01-27T00:37:11.361Z,82.54
2023-01-27T00:39:39.550Z,81.54
2023-01-27T00:42:08.072Z,80.82
2023-01-27T00:44:36.256Z,80.97
2023-01-27T00:47:05.819Z,81.98
2023-01-27T00:49:33.920Z,82.39
2023-01-27T00:52:02.060Z,82.68
2023-01-27T00:54:30.171Z,82.41
2023-01-27T00:56:58.232Z,82.51
2023-01-27T00:59:26.360Z,82.45
2023-01-27T01:01:54.578Z,82.46
2023-01-27T01:04:24.131Z,82.00
2023-01-27T01:06:52.265Z,80.99
2023-01-27T01:09:20.360Z,80.08
2023-01-27T01:11:48.563Z,81.06
2023-01-27T01:14:16.739Z,81.34
2023-01-27T01:16:44.850Z,81.60
2023-01-27T01:19:13.058Z,80.79
2023-01-27T01:21:42.960Z,79.97
2023-01-27T01:24:11.159Z,79.33
2023-01-27T01:26:39.284Z,80.06
2023-01-27T01:29:07.400Z,80.50
2023-01-27T01:31:35.534Z,80.83
2023-01-27T01:34:03.859Z,81.35
2023-01-27T01:36:32.060Z,81.04
2023-01-27T01:39:01.569Z,81.44
2023-01-27T01:41:30.292Z,80.74
2023-01-27T01:43:58.404Z,81.03
2023-01-27T01:46:26.553Z,80.81
2023-01-27T01:49:00.902Z,79.37
2023-01-27T01:51:33.765Z,79.18
2023-01-27T01:54:09.687Z,79.11
2023-01-27T01:56:42.748Z,78.22
2023-01-27T01:59:18.573Z,78.42
2023-01-27T02:01:47.348Z,77.80
2023-01-27T02:04:20.653Z,77.95
2023-01-27T02:07:00.591Z,78.73
2023-01-27T02:09:30.655Z,77.83
2023-01-27T02:12:00.330Z,78.52
2023-01-27T02:14:28.646Z,78.31
2023-01-27T02:16:57.981Z,77.75
2023-01-27T02:19:41.466Z,78.44
2023-01-27T02:22:19.446Z,78.55
2023-01-27T02:24:57.660Z,78.87
2023-01-27T02:27:27.244Z,79.42
2023-01-27T02:29:55.350Z,79.12
2023-01-27T02:32:25.028Z,77.58
2023-01-27T02:34:56.643Z,77.63
2023-01-27T02:37:26.661Z,77.39
2023-01-27T02:39:59.203Z,78.11
2023-01-27T02:42:28.723Z,78.85
2023-01-27T02:44:56.864Z,79.44
2023-01-27T02:47:25.001Z,79.12
2023-01-27T02:49:54.308Z,78.64
2023-01-27T02:52:23.361Z,78.15
2023-01-27T02:54:51.461Z,78.12
2023-01-27T02:57:20.120Z,78.38
2023-01-27T02:59:49.649Z,79.22
2023-01-27T03:02:22.957Z,79.06
2023-01-27T03:04:51.168Z,78.33
2023-01-27T03:07:19.257Z,78.08
2023-01-27T03:09:47.356Z,78.42
2023-01-27T03:12:21.262Z,78.70
2023-01-27T03:15:10.319Z,78.06
2023-01-27T03:17:57.480Z,78.15
2023-01-27T03:20:26.012Z,78.48
2023-01-27T03:22:54.155Z,78.40
2023-01-27T03:25:22.323Z,78.37
2023-01-27T03:27:50.456Z,78.17
2023-01-27T03:30:20.576Z,77.52
2023-01-27T03:32:48.693Z,77.76
2023-01-27T03:35:18.087Z,78.02
2023-01-27T03:38:04.135Z,78.87
2023-01-27T03:40:49.869Z,79.87
2023-01-27T03:43:35.530Z,80.04
2023-01-27T03:46:18.352Z,80.00
2023-01-27T03:48:50.834Z,80.10
2023-01-27T03:51:21.019Z,80.25
2023-01-27T03:53:49.933Z,79.40
2023-01-27T03:56:21.210Z,79.34
2023-01-27T03:58:51.444Z,79.35
2023-01-27T04:01:23.708Z,79.98
2023-01-27T04:04:10.686Z,80.44
2023-01-27T04:06:55.138Z,80.85
2023-01-27T04:09:26.389Z,81.12
2023-01-27T04:11:58.498Z,81.50
2023-01-27T04:14:30.289Z,81.72
2023-01-27T04:17:02.891Z,81.20
2023-01-27T04:19:31.499Z,80.78
2023-01-27T04:22:02.186Z,80.59
2023-01-27T04:24:30.734Z,80.97
2023-01-27T04:27:03.102Z,81.61
2023-01-27T04:29:34.814Z,81.33
2023-01-27T04:32:06.619Z,81.15
2023-01-27T04:34:34.986Z,81.29
2023-01-27T04:37:05.415Z,81.38
2023-01-27T04:39:33.700Z,81.90
2023-01-27T04:42:02.210Z,81.95
2023-01-27T04:44:30.402Z,81.99
2023-01-27T04:46:58.520Z,82.42
2023-01-27T04:49:28.058Z,82.58
2023-01-27T04:51:56.632Z,83.06
2023-01-27T04:54:24.716Z,82.91
2023-01-27T04:56:59.516Z,83.04
2023-01-27T04:59:28.419Z,83.10
2023-01-27T05:01:56.968Z,82.95
2023-01-27T05:04:26.205Z,83.34
2023-01-27T05:06:55.991Z,83.73
2023-01-27T05:09:24.326Z,84.29
2023-01-27T05:11:52.465Z,84.13
2023-01-27T05:14:23.381Z,83.97
2023-01-27T05:16:51.593Z,82.64
2023-01-27T05:19:19.759Z,82.74
2023-01-27T05:21:47.850Z,82.58
2023-01-27T05:24:17.403Z,82.41
2023-01-27T05:26:45.583Z,83.06
2023-01-27T05:29:13.669Z,81.63
2023-01-27T05:31:41.825Z,81.22
2023-01-27T05:34:10.754Z,81.05
2023-01-27T05:36:38.919Z,81.50
2023-01-27T05:39:08.871Z,81.76
2023-01-27T05:41:38.919Z,82.51
2023-01-27T05:44:07.779Z,83.12
2023-01-27T05:46:40.124Z,83.22
2023-01-27T05:49:08.277Z,83.54
2023-01-27T05:51:39.563Z,83.56
2023-01-27T05:54:08.850Z,83.11
2023-01-27T05:56:39.139Z,83.04
2023-01-27T05:59:07.698Z,82.74
2023-01-27T06:01:37.576Z,81.55
2023-01-27T06:04:07.127Z,81.87
2023-01-27T06:06:35.619Z,81.01
2023-01-27T06:09:04.217Z,81.34
2023-01-27T06:11:32.417Z,81.70
2023-01-27T06:14:01.862Z,82.39
2023-01-27T06:16:30.196Z,81.73
2023-01-27T06:18:58.671Z,81.33
2023-01-27T06:21:26.883Z,81.68
2023-01-27T06:23:55.814Z,81.98
2023-01-27T06:26:23.962Z,82.19
2023-01-27T06:28:52.126Z,81.99
2023-01-27T06:31:23.263Z,82.12
2023-01-27T06:33:52.323Z,81.19
2023-01-27T06:36:23.297Z,81.37
2023-01-27T06:38:52.230Z,80.18
2023-01-27T06:41:20.394Z,79.90
2023-01-27T06:43:48.539Z,80.21
2023-01-27T06:46:16.748Z,80.43
2023-01-27T06:48:46.279Z,81.16
2023-01-27T06:51:14.860Z,81.61
2023-01-27T06:53:42.932Z,81.60
2023-01-27T06:56:11.219Z,79.77
2023-01-27T06:58:39.300Z,79.14
2023-01-27T07:01:08.115Z,79.44
2023-01-27T07:03:36.278Z,80.39
2023-01-27T07:06:06.507Z,79.71
2023-01-27T07:08:34.715Z,79.84
2023-01-27T07:11:05.414Z,80.12
2023-01-27T07:13:33.534Z,80.53
2023-01-27T07:16:02.373Z,80.59
2023-01-27T07:18:30.751Z,80.21
2023-01-27T07:20:58.876Z,81.01
2023-01-27T07:23:28.488Z,81.62
2023-01-27T07:25:56.597Z,82.00
2023-01-27T07:28:24.849Z,81.59
2023-01-27T07:30:52.990Z,80.85
2023-01-27T07:33:21.260Z,81.19
2023-01-27T07:35:50.667Z,82.08
2023-01-27T07:38:18.866Z,82.35
2023-01-27T07:40:48.637Z,83.15
2023-01-27T07:43:16.871Z,82.39
2023-01-27T07:45:48.830Z,82.33
2023-01-27T07:48:17.462Z,83.23
2023-01-27T07:50:45.892Z,83.82
2023-01-27T07:53:14.030Z,84.07
2023-01-27T07:55:42.564Z,84.21
2023-01-27T07:58:12.132Z,83.41
2023-01-27T08:00:40.439Z,83.36
2023-01-27T08:03:08.637Z,83.74
2023-01-27T08:05:38.360Z,83.96
2023-01-27T08:08:07.043Z,84.10
2023-01-27T08:10:35.212Z,83.06
2023-01-27T08:13:03.461Z,82.49
2023-01-27T08:15:33.254Z,83.27
2023-01-27T08:18:02.341Z,82.66
2023-01-27T08:20:30.618Z,82.75
2023-01-27T08:22:58.750Z,83.33
2023-01-27T08:25:27.312Z,83.74
2023-01-27T08:27:57.556Z,84.06
2023-01-27T08:30:26.655Z,84.46
2023-01-27T08:32:56.416Z,82.76
2023-01-27T08:35:24.575Z,82.65
2023-01-27T08:37:52.656Z,83.17
2023-01-27T08:40:20.902Z,83.42
2023-01-27T08:42:51.296Z,82.79
2023-01-27T08:45:19.492Z,82.65
2023-01-27T08:47:47.681Z,82.55
2023-01-27T08:50:17.561Z,82.85
2023-01-27T08:52:45.685Z,81.76
2023-01-27T08:55:13.832Z,81.29
2023-01-27T08:57:41.984Z,81.59
2023-01-27T09:00:14.077Z,81.11
2023-01-27T09:02:42.600Z,80.86
2023-01-27T09:05:11.213Z,80.48
2023-01-27T09:07:40.929Z,79.90
2023-01-27T09:10:19.861Z,79.65
2023-01-27T09:12:48.295Z,80.42
2023-01-27T09:15:16.798Z,80.09
2023-01-27T09:17:44.977Z,80.68
2023-01-27T09:20:14.645Z,80.22
2023-01-27T09:22:44.494Z,80.08
2023-01-27T09:25:16.995Z,79.42
2023-01-27T09:27:45.948Z,79.05
2023-01-27T09:30:17.241Z,79.51
2023-01-27T09:32:45.467Z,79.94
2023-01-27T09:35:13.938Z,79.71
2023-01-27T09:37:50.951Z,79.32
2023-01-27T09:40:31.669Z,78.45
2023-01-27T09:43:44.875Z,78.52
2023-01-27T09:46:40.439Z,78.66
2023-01-27T09:49:36.204Z,79.26
2023-01-27T09:52:48.075Z,79.51
2023-01-27T09:55:28.248Z,79.73
2023-01-27T09:58:08.390Z,79.68
2023-01-27T10:00:53.164Z,79.70
2023-01-27T10:03:43.276Z,79.42
2023-01-27T10:06:47.374Z,79.74
2023-01-27T10:09:57.095Z,78.80
2023-01-27T10:12:44.843Z,79.06
2023-01-27T10:15:32.573Z,79.29
2023-01-27T10:18:22.045Z,79.77
2023-01-27T10:21:03.976Z,80.27
2023-01-27T10:23:51.601Z,81.04
2023-01-27T10:26:32.499Z,81.25
2023-01-27T10:29:11.285Z,80.90
2023-01-27T10:31:55.496Z,79.21
2023-01-27T10:34:34.017Z,79.38
2023-01-27T10:37:24.461Z,78.68
2023-01-27T10:40:03.871Z,79.78
2023-01-27T10:42:43.501Z,80.35
2023-01-27T10:45:33.750Z,79.62
2023-01-27T10:48:28.968Z,79.08
2023-01-27T10:51:05.457Z,79.61
2023-01-27T10:53:43.757Z,79.53
2023-01-27T10:56:19.462Z,79.75
2023-01-27T10:59:02.739Z,79.60
2023-01-27T11:01:40.571Z,80.04
2023-01-27T11:04:17.047Z,79.31
2023-01-27T11:06:48.348Z,79.26
2023-01-27T11:09:29.356Z,80.00
2023-01-27T11:12:05.225Z,79.87
2023-01-27T11:14:43.301Z,79.46
2023-01-27T11:17:28.582Z,79.38
2023-01-27T11:20:06.745Z,79.88
2023-01-27T11:22:45.236Z,80.01
2023-01-27T11:25:27.682Z,79.22
2023-01-27T11:28:14.260Z,79.84
2023-01-27T11:30:58.329Z,79.76
2023-01-27T11:33:44.187Z,79.26
2023-01-27T11:36:12.420Z,79.48
2023-01-27T11:38:40.496Z,79.42
2023-01-27T11:41:08.661Z,80.04
2023-01-27T11:43:38.452Z,80.16
2023-01-27T11:46:13.013Z,80.36
2023-01-27T11:48:47.238Z,79.09
2023-01-27T11:51:22.830Z,79.05
2023-01-27T11:54:03.746Z,78.54
2023-01-27T11:56:34.205Z,79.25
2023-01-27T11:59:10.364Z,79.94
2023-01-27T12:01:48.556Z,79.87
2023-01-27T12:04:25.082Z,80.53
2023-01-27T12:07:01.250Z,80.63
2023-01-27T12:09:35.956Z,80.74
2023-01-27T12:12:25.131Z,80.46
2023-01-27T12:14:55.503Z,79.77
2023-01-27T12:17:34.133Z,80.55
2023-01-27T12:20:21.337Z,80.97
2023-01-27T12:22:54.938Z,79.91
2023-01-27T12:25:28.466Z,79.68
2023-01-27T12:28:02.360Z,79.81
2023-01-27T12:30:36.067Z,79.56
2023-01-27T12:33:19.654Z,80.60
2023-01-27T12:35:51.776Z,81.23
2023-01-27T12:38:23.922Z,80.87
2023-01-27T12:41:02.639Z,81.36
2023-01-27T12:43:30.772Z,81.50
2023-01-27T12:46:25.505Z,81.27
2023-01-27T12:49:02.554Z,81.63
2023-01-27T12:51:41.640Z,81.57
2023-01-27T12:54:21.744Z,79.59
2023-01-27T12:56:51.072Z,80.37
2023-01-27T12:59:22.299Z,80.69
2023-01-27T13:02:04.352Z,80.42
2023-01-27T13:04:32.904Z,80.67
2023-01-27T13:07:14.364Z,81.38
2023-01-27T13:09:54.347Z,80.94
2023-01-27T13:12:25.788Z,81.01
2023-01-27T13:14:57.697Z,80.48
2023-01-27T13:17:39.352Z,80.17
2023-01-27T13:20:20.027Z,80.64
2023-01-27T13:22:57.285Z,80.16
2023-01-27T13:25:37.516Z,79.84
2023-01-27T13:28:09.616Z,79.56
2023-01-27T13:30:43.945Z,78.97
2023-01-27T13:33:31.573Z,78.82
2023-01-27T13:36:08.136Z,79.20
2023-01-27T13:38:50.123Z,79.79
2023-01-27T13:41:28.693Z,80.90
2023-01-27T13:44:04.703Z,79.81
2023-01-27T13:46:39.435Z,79.76
2023-01-27T13:49:27.576Z,80.32
2023-01-27T13:51:55.891Z,81.09
2023-01-27T13:54:25.393Z,81.06
2023-01-27T13:57:26.864Z,81.13
2023-01-27T14:00:12.177Z,80.90
2023-01-27T14:03:35.361Z,81.17
2023-01-27T14:06:34.047Z,80.53
2023-01-27T14:09:25.385Z,80.61
2023-01-27T14:12:07.357Z,80.58
2023-01-27T14:14:58.681Z,80.15
2023-01-27T14:17:43.317Z,80.35
2023-01-27T14:20:42.217Z,80.70
2023-01-27T14:23:31.923Z,81.26
2023-01-27T14:26:18.338Z,81.31
2023-01-27T14:29:06.133Z,81.35
2023-01-27T14:31:48.344Z,81.50
2023-01-27T14:35:05.844Z,81.21
2023-01-27T14:37:50.275Z,80.34
2023-01-27T14:40:25.361Z,81.36
2023-01-27T14:43:16.708Z,81.29
2023-01-27T14:45:55.333Z,81.84
2023-01-27T14:48:43.226Z,82.33
2023-01-27T14:51:27.097Z,81.86
2023-01-27T14:54:19.361Z,81.89
2023-01-27T14:57:13.220Z,81.86
2023-01-27T14:59:57.845Z,82.23
2023-01-27T15:02:49.112Z,82.49
2023-01-27T15:05:30.742Z,82.22
2023-01-27T15:08:11.057Z,82.51
2023-01-27T15:10:55.801Z,82.69
2023-01-27T15:13:49.201Z,83.25
2023-01-27T15:16:39.129Z,83.59
2023-01-27T15:19:54.985Z,84.19
2023-01-27T15:23:05.087Z,84.29
2023-01-27T15:25:39.381Z,84.73
2023-01-27T15:28:15.090Z,85.27
2023-01-27T15:31:10.828Z,85.52
2023-01-27T15:33:54.558Z,85.20
2023-01-27T15:37:00.982Z,85.59
2023-01-27T15:39:40.899Z,85.80
2023-01-27T15:42:13.130Z,86.11
2023-01-27T15:44:59.449Z,86.34
2023-01-27T15:47:31.367Z,86.53
2023-01-27T15:50:20.279Z,86.74
2023-01-27T15:52:52.071Z,86.93
2023-01-27T15:55:27.690Z,86.87
2023-01-27T15:58:12.406Z,87.14
2023-01-27T16:00:43.679Z,87.23
2023-01-27T16:03:24.938Z,87.19
2023-01-27T16:05:57.163Z,87.41
2023-01-27T16:08:33.210Z,87.39
2023-01-27T16:11:26.301Z,87.85
2023-01-27T16:14:33.819Z,87.40
2023-01-27T16:17:23.173Z,87.71
2023-01-27T16:20:05.403Z,88.34
2023-01-27T16:22:41.449Z,88.74
2023-01-27T16:25:26.468Z,89.14
2023-01-27T16:28:03.511Z,89.43
2023-01-27T16:30:36.691Z,88.83
2023-01-27T16:33:09.227Z,88.12
2023-01-27T16:35:47.192Z,88.15
2023-01-27T16:38:25.425Z,88.70
2023-01-27T16:40:58.311Z,89.16
2023-01-27T16:43:32.821Z,88.90
2023-01-27T16:46:02.702Z,88.81
2023-01-27T16:48:42.660Z,88.55
2023-01-27T16:51:18.490Z,88.81
2023-01-27T16:53:50.403Z,88.81
2023-01-27T16:56:28.194Z,89.14
2023-01-27T16:59:03.443Z,88.77
2023-01-27T17:01:41.637Z,88.65
2023-01-27T17:04:20.030Z,89.00
2023-01-27T17:06:49.894Z,89.40
2023-01-27T17:09:25.230Z,88.77
2023-01-27T17:11:55.579Z,88.01
2023-01-27T17:14:32.103Z,87.04
2023-01-27T17:17:02.750Z,86.67
2023-01-27T17:19:35.212Z,86.98
2023-01-27T17:22:10.004Z,87.37
2023-01-27T17:24:45.416Z,87.39
2023-01-27T17:27:26.968Z,88.00
2023-01-27T17:30:08.370Z,88.58
2023-01-27T17:32:39.090Z,87.66
2023-01-27T17:35:21.317Z,87.44
2023-01-27T17:37:49.404Z,87.80
2023-01-27T17:40:21.767Z,87.99
2023-01-27T17:42:51.387Z,87.49
2023-01-27T17:45:29.110Z,87.40
2023-01-27T17:48:00.220Z,87.64
2023-01-27T17:50:37.092Z,87.14
2023-01-27T17:53:12.305Z,87.17
2023-01-27T17:55:41.020Z,87.51
2023-01-27T17:58:20.249Z,87.27
2023-01-27T18:00:48.797Z,87.22
2023-01-27T18:03:23.605Z,86.59
2023-01-27T18:05:55.128Z,86.55
2023-01-27T18:08:24.423Z,87.05
2023-01-27T18:10:52.999Z,86.59
2023-01-27T18:16:18.841Z,86.96
2023-01-27T18:18:48.035Z,87.10
2023-01-27T18:21:20.078Z,87.03
2023-01-27T18:23:52.634Z,86.80
2023-01-27T18:26:26.016Z,86.67
2023-01-27T18:29:00.809Z,86.34
2023-01-27T18:31:34.394Z,87.08
2023-01-27T18:34:22.501Z,86.72
2023-01-27T18:36:55.396Z,87.33
2023-01-27T18:39:34.064Z,87.83
2023-01-27T18:42:02.691Z,87.34
2023-01-27T18:44:35.768Z,86.99
2023-01-27T18:47:33.780Z,86.47
2023-01-27T18:50:18.301Z,86.37
2023-01-27T18:52:47.187Z,86.10
2023-01-27T18:55:19.951Z,86.94
2023-01-27T18:57:50.655Z,86.92
2023-01-27T19:00:22.357Z,86.41
2023-01-27T19:02:56.189Z,86.04
2023-01-27T19:05:27.179Z,86.61
2023-01-27T19:07:55.287Z,86.97
2023-01-27T19:10:28.318Z,87.12
2023-01-27T19:12:59.304Z,86.87
2023-01-27T19:15:29.738Z,86.05
2023-01-27T19:18:02.286Z,85.98
2023-01-27T19:20:32.401Z,85.33
2023-01-27T19:23:00.698Z,84.46
2023-01-27T19:25:31.855Z,85.31
2023-01-27T19:28:06.457Z,84.61
2023-01-27T19:30:37.071Z,85.22
2023-01-27T19:33:18.295Z,85.53
2023-01-27T19:35:49.781Z,85.87
2023-01-27T19:38:17.931Z,85.61
2023-01-27T19:40:46.066Z,85.42
2023-01-27T19:43:15.315Z,85.71
2023-01-27T19:45:46.775Z,85.52
2023-01-27T19:48:20.103Z,86.23
2023-01-27T19:50:49.421Z,85.74
2023-01-27T19:53:19.563Z,85.42
2023-01-27T19:55:49.238Z,84.80
2023-01-27T19:58:24.582Z,84.97
2023-01-27T20:00:54.631Z,85.86
2023-01-27T20:03:24.677Z,85.84
2023-01-27T20:05:53.465Z,85.68
2023-01-27T20:08:22.951Z,85.66
2023-01-27T20:10:52.555Z,84.90
2023-01-27T20:13:22.099Z,84.99
2023-01-27T20:15:50.263Z,84.69
2023-01-27T20:18:21.364Z,85.04
2023-01-27T20:20:52.235Z,85.07
2023-01-27T20:23:20.460Z,85.02
2023-01-27T20:25:48.557Z,84.71
2023-01-27T20:28:16.637Z,85.17
2023-01-27T20:30:44.849Z,84.76
2023-01-27T20:33:15.209Z,84.71
2023-01-27T20:35:43.380Z,84.95
2023-01-27T20:38:12.870Z,85.32
2023-01-27T20:40:40.975Z,84.65
2023-01-27T20:43:09.130Z,84.73
2023-01-27T20:45:38.743Z,84.30
2023-01-27T20:48:06.962Z,83.89
2023-01-27T20:50:35.115Z,84.28
2023-01-27T20:53:04.569Z,84.79
2023-01-27T20:55:34.024Z,84.97
2023-01-27T20:58:02.124Z,85.08
2023-01-27T21:00:30.298Z,84.69
2023-01-27T21:02:58.444Z,84.88
2023-01-27T21:05:26.584Z,84.11
2023-01-27T21:07:54.673Z,84.11
2023-01-27T21:10:23.213Z,84.05
2023-01-27T21:12:52.777Z,83.87
2023-01-27T21:15:20.923Z,83.09
2023-01-27T21:17:51.547Z,83.18
2023-01-27T21:20:19.712Z,83.57
2023-01-27T21:22:47.882Z,84.08
2023-01-27T21:25:16.590Z,84.20
2023-01-27T21:27:45.111Z,83.82
2023-01-27T21:30:15.533Z,83.86
2023-01-27T21:32:43.689Z,83.22
2023-01-27T21:35:12.228Z,82.54
2023-01-27T21:37:40.548Z,82.72
2023-01-27T21:40:10.499Z,83.07
2023-01-27T21:42:56.268Z,83.23
2023-01-27T21:45:25.803Z,83.22
2023-01-27T21:47:53.939Z,83.63
2023-01-27T21:50:22.168Z,83.29
2023-01-27T21:52:51.691Z,83.44
2023-01-27T21:55:22.695Z,83.16
2023-01-27T21:57:53.028Z,82.62
2023-01-27T22:00:24.477Z,82.13
2023-01-27T22:03:00.367Z,82.44
2023-01-27T22:05:30.739Z,82.85
2023-01-27T22:08:01.597Z,82.83
2023-01-27T22:10:31.276Z,82.33
2023-01-27T22:13:03.367Z,82.21
2023-01-27T22:15:32.186Z,82.42
2023-01-27T22:18:01.922Z,82.89
2023-01-27T22:20:30.224Z,83.07
2023-01-27T22:22:58.327Z,83.06
2023-01-27T22:25:27.298Z,82.19
2023-01-27T22:27:56.160Z,81.84
2023-01-27T22:30:24.863Z,81.91
2023-01-27T22:32:53.075Z,81.67
2023-01-27T22:35:22.719Z,82.44
2023-01-27T22:37:52.756Z,82.38
2023-01-27T22:40:21.028Z,82.12
2023-01-27T22:42:50.288Z,82.09
2023-01-27T22:45:19.067Z,81.27
2023-01-27T22:47:47.210Z,80.83
2023-01-27T22:50:15.404Z,81.74
2023-01-27T22:52:45.155Z,81.62
2023-01-27T22:55:14.509Z,80.80
2023-01-27T22:57:45.639Z,80.41
2023-01-27T23:00:14.730Z,80.20
2023-01-27T23:02:42.864Z,80.81
2023-01-27T23:05:11.263Z,81.75
2023-01-27T23:07:39.453Z,80.76
2023-01-27T23:10:11.100Z,81.01
2023-01-27T23:12:39.282Z,80.73
2023-01-27T23:15:09.130Z,80.77
2023-01-27T23:17:37.339Z,80.48
2023-01-27T23:20:06.953Z,80.48
2023-01-27T23:22:35.283Z,81.09
2023-01-27T23:25:03.464Z,81.25
2023-01-27T23:27:32.963Z,80.95
2023-01-27T23:30:01.068Z,81.13
2023-01-27T23:32:29.234Z,80.95
2023-01-27T23:34:57.336Z,81.82
2023-01-27T23:37:25.481Z,81.31
2023-01-27T23:39:53.689Z,81.25
2023-01-27T23:42:21.820Z,81.60
2023-01-27T23:44:51.335Z,81.45
2023-01-27T23:47:19.716Z,81.40
2023-01-27T23:49:47.970Z,81.55
2023-01-27T23:52:16.169Z,81.96
2023-01-27T23:54:44.214Z,81.37
2023-01-27T23:57:12.454Z,81.07
2023-01-27T23:59:41.336Z,81.33
